sensor_id;sensor_type;location;lat;lon;timestamp;P1;durP1;ratioP1;P2;durP2;ratioP2
9974;SDS011;5028;50.974;4.968;2023-04-02T00:01:04;7.20;;;6.50;;
9974;SDS011;5028;50.974;4.968;2023-04-02T00:10:02;7.70;;;6.90;;
9974;SDS011;5028;50.974;4.968;2023-04-02T00:12:31;9.63;;;8.70;;
9974;SDS011;5028;50.974;4.968;2023-04-02T00:15:07;9.77;;;8.80;;
9974;SDS011;5028;50.974;4.968;2023-04-02T00:17:39;10.77;;;9.77;;
9974;SDS011;5028;50.974;4.968;2023-04-02T00:20:17;10.47;;;9.47;;
9974;SDS011;5028;50.974;4.968;2023-04-02T00:22:47;11.07;;;10.00;;
9974;SDS011;5028;50.974;4.968;2023-04-02T00:25:25;9.80;;;8.93;;
9974;SDS011;5028;50.974;4.968;2023-04-02T00:28:02;8.93;;;8.03;;
9974;SDS011;5028;50.974;4.968;2023-04-02T00:30:31;10.93;;;9.93;;
9974;SDS011;5028;50.974;4.968;2023-04-02T00:33:10;11.80;;;10.70;;
9974;SDS011;5028;50.974;4.968;2023-04-02T00:35:44;11.33;;;10.27;;
9974;SDS011;5028;50.974;4.968;2023-04-02T00:38:21;12.50;;;11.20;;
9974;SDS011;5028;50.974;4.968;2023-04-02T00:40:54;12.50;;;11.30;;
9974;SDS011;5028;50.974;4.968;2023-04-02T00:43:32;12.27;;;10.90;;
9974;SDS011;5028;50.974;4.968;2023-04-02T00:46:04;11.73;;;10.50;;
9974;SDS011;5028;50.974;4.968;2023-04-02T00:48:48;11.67;;;10.57;;
9974;SDS011;5028;50.974;4.968;2023-04-02T00:51:29;11.53;;;10.33;;
9974;SDS011;5028;50.974;4.968;2023-04-02T00:54:03;12.50;;;11.20;;
9974;SDS011;5028;50.974;4.968;2023-04-02T00:56:43;12.63;;;11.53;;
9974;SDS011;5028;50.974;4.968;2023-04-02T00:59:18;11.60;;;10.50;;
9974;SDS011;5028;50.974;4.968;2023-04-02T01:01:59;12.77;;;11.57;;
9974;SDS011;5028;50.974;4.968;2023-04-02T01:04:55;12.10;;;10.97;;
9974;SDS011;5028;50.974;4.968;2023-04-02T01:07:42;14.40;;;12.37;;
9974;SDS011;5028;50.974;4.968;2023-04-02T01:10:33;11.67;;;10.57;;
9974;SDS011;5028;50.974;4.968;2023-04-02T01:13:22;12.57;;;11.37;;
9974;SDS011;5028;50.974;4.968;2023-04-02T01:16:03;11.83;;;10.73;;
9974;SDS011;5028;50.974;4.968;2023-04-02T01:18:41;10.40;;;9.40;;
9974;SDS011;5028;50.974;4.968;2023-04-02T01:21:28;10.40;;;9.50;;
9974;SDS011;5028;50.974;4.968;2023-04-02T01:24:09;10.43;;;9.47;;
9974;SDS011;5028;50.974;4.968;2023-04-02T01:26:53;9.53;;;8.73;;
9974;SDS011;5028;50.974;4.968;2023-04-02T01:29:26;10.23;;;9.33;;
9974;SDS011;5028;50.974;4.968;2023-04-02T01:32:04;9.20;;;8.43;;
9974;SDS011;5028;50.974;4.968;2023-04-02T01:34:36;8.10;;;7.40;;
9974;SDS011;5028;50.974;4.968;2023-04-02T01:37:24;9.60;;;8.80;;
9974;SDS011;5028;50.974;4.968;2023-04-02T01:40:05;10.60;;;9.63;;
9974;SDS011;5028;50.974;4.968;2023-04-02T01:43:04;10.00;;;9.17;;
9974;SDS011;5028;50.974;4.968;2023-04-02T01:45:48;7.93;;;7.23;;
9974;SDS011;5028;50.974;4.968;2023-04-02T01:48:17;9.50;;;8.70;;
9974;SDS011;5028;50.974;4.968;2023-04-02T01:50:57;5.47;;;4.97;;
9974;SDS011;5028;50.974;4.968;2023-04-02T01:53:29;8.77;;;7.97;;
9974;SDS011;5028;50.974;4.968;2023-04-02T01:56:05;8.93;;;8.20;;
9974;SDS011;5028;50.974;4.968;2023-04-02T01:58:33;9.30;;;8.50;;
9974;SDS011;5028;50.974;4.968;2023-04-02T02:01:17;8.77;;;8.07;;
9974;SDS011;5028;50.974;4.968;2023-04-02T02:04:02;8.43;;;7.63;;
9974;SDS011;5028;50.974;4.968;2023-04-02T02:06:38;8.80;;;8.10;;
9974;SDS011;5028;50.974;4.968;2023-04-02T02:09:09;8.47;;;7.77;;
9974;SDS011;5028;50.974;4.968;2023-04-02T02:11:48;9.03;;;8.33;;
9974;SDS011;5028;50.974;4.968;2023-04-02T02:14:18;8.33;;;7.63;;
9974;SDS011;5028;50.974;4.968;2023-04-02T02:16:57;9.50;;;8.70;;
9974;SDS011;5028;50.974;4.968;2023-04-02T02:19:28;9.77;;;8.97;;
9974;SDS011;5028;50.974;4.968;2023-04-02T02:22:11;10.50;;;9.60;;
9974;SDS011;5028;50.974;4.968;2023-04-02T02:24:48;9.93;;;9.03;;
9974;SDS011;5028;50.974;4.968;2023-04-02T02:27:38;11.63;;;10.53;;
9974;SDS011;5028;50.974;4.968;2023-04-02T02:30:25;12.00;;;11.00;;
9974;SDS011;5028;50.974;4.968;2023-04-02T02:33:05;10.27;;;9.37;;
9974;SDS011;5028;50.974;4.968;2023-04-02T02:35:42;10.63;;;9.73;;
9974;SDS011;5028;50.974;4.968;2023-04-02T02:38:40;12.23;;;11.13;;
9974;SDS011;5028;50.974;4.968;2023-04-02T02:41:23;10.40;;;9.50;;
9974;SDS011;5028;50.974;4.968;2023-04-02T02:44:05;12.47;;;11.37;;
9974;SDS011;5028;50.974;4.968;2023-04-02T02:46:42;12.13;;;11.07;;
9974;SDS011;5028;50.974;4.968;2023-04-02T02:49:21;9.90;;;9.10;;
9974;SDS011;5028;50.974;4.968;2023-04-02T02:51:56;10.20;;;9.30;;
9974;SDS011;5028;50.974;4.968;2023-04-02T02:54:34;10.43;;;9.50;;
9974;SDS011;5028;50.974;4.968;2023-04-02T02:57:08;12.43;;;11.30;;
9974;SDS011;5028;50.974;4.968;2023-04-02T02:59:46;12.67;;;11.40;;
9974;SDS011;5028;50.974;4.968;2023-04-02T03:02:30;11.83;;;10.73;;
9974;SDS011;5028;50.974;4.968;2023-04-02T03:05:16;12.23;;;11.13;;
9974;SDS011;5028;50.974;4.968;2023-04-02T03:07:55;12.23;;;11.13;;
9974;SDS011;5028;50.974;4.968;2023-04-02T03:10:28;13.60;;;12.27;;
9974;SDS011;5028;50.974;4.968;2023-04-02T03:13:11;13.07;;;11.80;;
9974;SDS011;5028;50.974;4.968;2023-04-02T03:15:50;13.23;;;12.03;;
9974;SDS011;5028;50.974;4.968;2023-04-02T03:18:33;11.03;;;10.10;;
9974;SDS011;5028;50.974;4.968;2023-04-02T03:21:12;13.27;;;12.17;;
9974;SDS011;5028;50.974;4.968;2023-04-02T03:23:53;12.03;;;10.93;;
9974;SDS011;5028;50.974;4.968;2023-04-02T03:26:28;12.70;;;11.50;;
9974;SDS011;5028;50.974;4.968;2023-04-02T03:29:09;13.37;;;12.17;;
9974;SDS011;5028;50.974;4.968;2023-04-02T03:31:43;13.20;;;12.00;;
9974;SDS011;5028;50.974;4.968;2023-04-02T03:34:21;12.73;;;11.63;;
9974;SDS011;5028;50.974;4.968;2023-04-02T03:36:55;13.40;;;12.20;;
9974;SDS011;5028;50.974;4.968;2023-04-02T03:39:33;13.43;;;12.23;;
9974;SDS011;5028;50.974;4.968;2023-04-02T03:42:07;11.07;;;10.00;;
9974;SDS011;5028;50.974;4.968;2023-04-02T03:44:48;11.97;;;10.80;;
9974;SDS011;5028;50.974;4.968;2023-04-02T03:47:23;11.17;;;10.17;;
9974;SDS011;5028;50.974;4.968;2023-04-02T03:50:06;14.30;;;12.90;;
9974;SDS011;5028;50.974;4.968;2023-04-02T03:52:39;15.33;;;13.93;;
9974;SDS011;5028;50.974;4.968;2023-04-02T03:55:15;15.70;;;14.23;;
9974;SDS011;5028;50.974;4.968;2023-04-02T03:57:50;15.87;;;14.37;;
9974;SDS011;5028;50.974;4.968;2023-04-02T04:00:30;14.07;;;12.67;;
9974;SDS011;5028;50.974;4.968;2023-04-02T04:03:10;14.03;;;12.73;;
9974;SDS011;5028;50.974;4.968;2023-04-02T04:05:49;12.07;;;11.07;;
9974;SDS011;5028;50.974;4.968;2023-04-02T04:08:22;11.90;;;10.67;;
9974;SDS011;5028;50.974;4.968;2023-04-02T04:11:06;11.13;;;10.03;;
9974;SDS011;5028;50.974;4.968;2023-04-02T04:13:41;10.20;;;9.07;;
9974;SDS011;5028;50.974;4.968;2023-04-02T04:16:20;11.03;;;10.00;;
9974;SDS011;5028;50.974;4.968;2023-04-02T04:18:52;11.00;;;10.00;;
9974;SDS011;5028;50.974;4.968;2023-04-02T04:21:35;10.67;;;9.77;;
9974;SDS011;5028;50.974;4.968;2023-04-02T04:24:05;11.27;;;10.10;;
9974;SDS011;5028;50.974;4.968;2023-04-02T04:26:50;10.37;;;9.47;;
9974;SDS011;5028;50.974;4.968;2023-04-02T04:29:26;9.70;;;8.80;;
9974;SDS011;5028;50.974;4.968;2023-04-02T04:32:17;11.00;;;10.00;;
9974;SDS011;5028;50.974;4.968;2023-04-02T04:35:01;10.80;;;9.80;;
9974;SDS011;5028;50.974;4.968;2023-04-02T04:37:40;10.13;;;9.23;;
9974;SDS011;5028;50.974;4.968;2023-04-02T04:40:17;10.07;;;9.27;;
9974;SDS011;5028;50.974;4.968;2023-04-02T04:42:56;9.70;;;8.80;;
9974;SDS011;5028;50.974;4.968;2023-04-02T04:45:32;9.07;;;8.27;;
9974;SDS011;5028;50.974;4.968;2023-04-02T04:48:14;6.60;;;5.97;;
9974;SDS011;5028;50.974;4.968;2023-04-02T04:50:46;9.70;;;8.80;;
9974;SDS011;5028;50.974;4.968;2023-04-02T04:53:27;9.20;;;8.40;;
9974;SDS011;5028;50.974;4.968;2023-04-02T04:55:59;9.40;;;8.60;;
9974;SDS011;5028;50.974;4.968;2023-04-02T04:58:45;9.73;;;8.83;;
9974;SDS011;5028;50.974;4.968;2023-04-02T05:01:20;10.43;;;9.53;;
9974;SDS011;5028;50.974;4.968;2023-04-02T05:03:59;10.03;;;9.13;;
9974;SDS011;5028;50.974;4.968;2023-04-02T05:06:40;9.77;;;8.97;;
9974;SDS011;5028;50.974;4.968;2023-04-02T05:09:19;9.03;;;8.23;;
9974;SDS011;5028;50.974;4.968;2023-04-02T05:11:54;8.50;;;7.63;;
9974;SDS011;5028;50.974;4.968;2023-04-02T05:14:39;8.40;;;7.67;;
9974;SDS011;5028;50.974;4.968;2023-04-02T05:17:13;8.90;;;8.00;;
9974;SDS011;5028;50.974;4.968;2023-04-02T05:19:53;8.73;;;7.97;;
9974;SDS011;5028;50.974;4.968;2023-04-02T05:22:27;6.37;;;5.83;;
9974;SDS011;5028;50.974;4.968;2023-04-02T05:25:11;8.50;;;7.70;;
9974;SDS011;5028;50.974;4.968;2023-04-02T05:27:48;10.10;;;9.13;;
9974;SDS011;5028;50.974;4.968;2023-04-02T05:30:49;8.17;;;7.47;;
9974;SDS011;5028;50.974;4.968;2023-04-02T05:33:49;9.87;;;8.97;;
9974;SDS011;5028;50.974;4.968;2023-04-02T05:36:45;10.37;;;9.03;;
9974;SDS011;5028;50.974;4.968;2023-04-02T05:39:42;10.77;;;9.83;;
9974;SDS011;5028;50.974;4.968;2023-04-02T05:42:39;10.63;;;9.60;;
9974;SDS011;5028;50.974;4.968;2023-04-02T05:45:40;11.93;;;10.80;;
9974;SDS011;5028;50.974;4.968;2023-04-02T05:48:41;12.13;;;11.03;;
9974;SDS011;5028;50.974;4.968;2023-04-02T05:51:18;9.10;;;8.20;;
9974;SDS011;5028;50.974;4.968;2023-04-02T05:53:58;11.90;;;10.70;;
9974;SDS011;5028;50.974;4.968;2023-04-02T05:56:30;13.03;;;11.43;;
9974;SDS011;5028;50.974;4.968;2023-04-02T05:59:10;11.87;;;10.77;;
9974;SDS011;5028;50.974;4.968;2023-04-02T06:01:52;12.60;;;11.30;;
9974;SDS011;5028;50.974;4.968;2023-04-02T06:04:35;12.70;;;11.50;;
9974;SDS011;5028;50.974;4.968;2023-04-02T06:07:18;11.57;;;10.47;;
9974;SDS011;5028;50.974;4.968;2023-04-02T06:09:57;12.60;;;11.30;;
9974;SDS011;5028;50.974;4.968;2023-04-02T06:12:34;11.93;;;10.70;;
9974;SDS011;5028;50.974;4.968;2023-04-02T06:15:12;11.83;;;10.60;;
9974;SDS011;5028;50.974;4.968;2023-04-02T06:17:45;12.57;;;11.27;;
9974;SDS011;5028;50.974;4.968;2023-04-02T06:20:20;10.67;;;9.57;;
9974;SDS011;5028;50.974;4.968;2023-04-02T06:22:50;12.90;;;11.60;;
9974;SDS011;5028;50.974;4.968;2023-04-02T06:25:29;13.07;;;11.80;;
9974;SDS011;5028;50.974;4.968;2023-04-02T06:28:10;10.00;;;9.03;;
9974;SDS011;5028;50.974;4.968;2023-04-02T06:30:42;11.97;;;10.83;;
9974;SDS011;5028;50.974;4.968;2023-04-02T06:33:20;11.47;;;10.37;;
9974;SDS011;5028;50.974;4.968;2023-04-02T06:35:49;11.07;;;9.97;;
9974;SDS011;5028;50.974;4.968;2023-04-02T06:38:26;10.07;;;9.20;;
9974;SDS011;5028;50.974;4.968;2023-04-02T06:40:58;10.87;;;9.77;;
9974;SDS011;5028;50.974;4.968;2023-04-02T06:43:38;10.20;;;9.20;;
9974;SDS011;5028;50.974;4.968;2023-04-02T06:46:19;10.77;;;9.67;;
9974;SDS011;5028;50.974;4.968;2023-04-02T06:48:55;10.07;;;9.17;;
9974;SDS011;5028;50.974;4.968;2023-04-02T06:51:36;10.60;;;9.60;;
9974;SDS011;5028;50.974;4.968;2023-04-02T06:54:07;10.90;;;9.37;;
9974;SDS011;5028;50.974;4.968;2023-04-02T06:56:48;9.93;;;8.93;;
9974;SDS011;5028;50.974;4.968;2023-04-02T06:59:18;10.40;;;9.40;;
9974;SDS011;5028;50.974;4.968;2023-04-02T07:02:00;10.20;;;9.30;;
9974;SDS011;5028;50.974;4.968;2023-04-02T07:04:46;11.57;;;10.47;;
9974;SDS011;5028;50.974;4.968;2023-04-02T07:07:21;11.10;;;10.00;;
9974;SDS011;5028;50.974;4.968;2023-04-02T07:09:50;9.83;;;8.83;;
9974;SDS011;5028;50.974;4.968;2023-04-02T07:12:25;11.13;;;10.00;;
9974;SDS011;5028;50.974;4.968;2023-04-02T07:14:54;11.57;;;8.83;;
9974;SDS011;5028;50.974;4.968;2023-04-02T07:17:23;11.07;;;9.97;;
9974;SDS011;5028;50.974;4.968;2023-04-02T07:19:59;9.67;;;8.43;;
9974;SDS011;5028;50.974;4.968;2023-04-02T07:22:28;9.07;;;8.17;;
9974;SDS011;5028;50.974;4.968;2023-04-02T07:24:57;8.93;;;8.03;;
9974;SDS011;5028;50.974;4.968;2023-04-02T07:27:31;9.70;;;8.60;;
9974;SDS011;5028;50.974;4.968;2023-04-02T07:30:00;8.77;;;7.97;;
9974;SDS011;5028;50.974;4.968;2023-04-02T07:32:36;9.20;;;8.30;;
9974;SDS011;5028;50.974;4.968;2023-04-02T07:35:12;8.17;;;7.37;;
9974;SDS011;5028;50.974;4.968;2023-04-02T07:37:41;8.63;;;7.73;;
9974;SDS011;5028;50.974;4.968;2023-04-02T07:40:17;9.43;;;8.53;;
9974;SDS011;5028;50.974;4.968;2023-04-02T07:42:54;11.00;;;8.80;;
9974;SDS011;5028;50.974;4.968;2023-04-02T07:45:22;9.23;;;8.33;;
9974;SDS011;5028;50.974;4.968;2023-04-02T07:48:01;9.67;;;8.67;;
9974;SDS011;5028;50.974;4.968;2023-04-02T07:50:40;10.43;;;9.03;;
9974;SDS011;5028;50.974;4.968;2023-04-02T07:53:12;9.43;;;8.43;;
9974;SDS011;5028;50.974;4.968;2023-04-02T07:56:02;12.00;;;9.13;;
9974;SDS011;5028;50.974;4.968;2023-04-02T07:58:38;10.97;;;9.17;;
9974;SDS011;5028;50.974;4.968;2023-04-02T08:01:12;9.70;;;8.80;;
9974;SDS011;5028;50.974;4.968;2023-04-02T08:03:57;7.23;;;6.53;;
9974;SDS011;5028;50.974;4.968;2023-04-02T08:06:27;8.27;;;7.50;;
9974;SDS011;5028;50.974;4.968;2023-04-02T08:09:03;7.80;;;7.10;;
9974;SDS011;5028;50.974;4.968;2023-04-02T08:11:32;8.83;;;8.03;;
9974;SDS011;5028;50.974;4.968;2023-04-02T08:14:01;9.17;;;8.17;;
9974;SDS011;5028;50.974;4.968;2023-04-02T08:16:43;9.43;;;7.67;;
9974;SDS011;5028;50.974;4.968;2023-04-02T08:19:14;9.03;;;8.10;;
9974;SDS011;5028;50.974;4.968;2023-04-02T08:21:51;9.27;;;8.47;;
9974;SDS011;5028;50.974;4.968;2023-04-02T08:24:26;8.67;;;7.77;;
9974;SDS011;5028;50.974;4.968;2023-04-02T08:26:55;9.20;;;8.27;;
9974;SDS011;5028;50.974;4.968;2023-04-02T08:29:30;9.57;;;8.57;;
9974;SDS011;5028;50.974;4.968;2023-04-02T08:31:59;10.33;;;8.57;;
9974;SDS011;5028;50.974;4.968;2023-04-02T08:34:28;10.07;;;8.63;;
9974;SDS011;5028;50.974;4.968;2023-04-02T08:37:05;9.33;;;8.47;;
9974;SDS011;5028;50.974;4.968;2023-04-02T08:39:33;8.70;;;7.77;;
9974;SDS011;5028;50.974;4.968;2023-04-02T08:42:14;9.10;;;8.20;;
9974;SDS011;5028;50.974;4.968;2023-04-02T08:44:52;9.23;;;8.30;;
9974;SDS011;5028;50.974;4.968;2023-04-02T08:47:50;9.53;;;8.57;;
9974;SDS011;5028;50.974;4.968;2023-04-02T08:50:30;8.77;;;7.87;;
9974;SDS011;5028;50.974;4.968;2023-04-02T08:53:02;10.20;;;8.67;;
9974;SDS011;5028;50.974;4.968;2023-04-02T08:55:40;9.97;;;8.97;;
9974;SDS011;5028;50.974;4.968;2023-04-02T08:58:17;9.77;;;8.57;;
9974;SDS011;5028;50.974;4.968;2023-04-02T09:01:01;8.70;;;7.73;;
9974;SDS011;5028;50.974;4.968;2023-04-02T09:03:39;8.50;;;7.70;;
9974;SDS011;5028;50.974;4.968;2023-04-02T09:06:23;9.83;;;7.40;;
9974;SDS011;5028;50.974;4.968;2023-04-02T09:09:01;9.73;;;6.63;;
9974;SDS011;5028;50.974;4.968;2023-04-02T09:11:31;7.70;;;6.43;;
9974;SDS011;5028;50.974;4.968;2023-04-02T09:14:15;7.43;;;6.10;;
9974;SDS011;5028;50.974;4.968;2023-04-02T09:16:47;6.40;;;5.80;;
9974;SDS011;5028;50.974;4.968;2023-04-02T09:19:25;6.93;;;5.83;;
9974;SDS011;5028;50.974;4.968;2023-04-02T09:22:03;6.83;;;5.97;;
9974;SDS011;5028;50.974;4.968;2023-04-02T09:24:42;6.37;;;5.77;;
9974;SDS011;5028;50.974;4.968;2023-04-02T09:27:16;6.87;;;5.70;;
9974;SDS011;5028;50.974;4.968;2023-04-02T09:29:54;7.43;;;6.13;;
9974;SDS011;5028;50.974;4.968;2023-04-02T09:32:37;6.97;;;6.10;;
9974;SDS011;5028;50.974;4.968;2023-04-02T09:35:19;6.30;;;5.37;;
9974;SDS011;5028;50.974;4.968;2023-04-02T09:38:10;7.37;;;5.83;;
9974;SDS011;5028;50.974;4.968;2023-04-02T09:40:47;7.47;;;5.83;;
9974;SDS011;5028;50.974;4.968;2023-04-02T09:43:24;9.40;;;5.93;;
9974;SDS011;5028;50.974;4.968;2023-04-02T09:45:54;8.03;;;5.73;;
9974;SDS011;5028;50.974;4.968;2023-04-02T09:48:32;6.70;;;5.30;;
9974;SDS011;5028;50.974;4.968;2023-04-02T09:51:04;8.30;;;5.17;;
9974;SDS011;5028;50.974;4.968;2023-04-02T09:53:42;6.90;;;5.13;;
9974;SDS011;5028;50.974;4.968;2023-04-02T09:56:16;5.23;;;4.53;;
9974;SDS011;5028;50.974;4.968;2023-04-02T09:59:00;6.27;;;4.87;;
9974;SDS011;5028;50.974;4.968;2023-04-02T10:01:31;9.67;;;4.80;;
9974;SDS011;5028;50.974;4.968;2023-04-02T10:07:30;7.87;;;5.20;;
9974;SDS011;5028;50.974;4.968;2023-04-02T10:10:14;6.70;;;5.10;;
9974;SDS011;5028;50.974;4.968;2023-04-02T10:12:58;8.23;;;5.33;;
9974;SDS011;5028;50.974;4.968;2023-04-02T10:15:30;7.17;;;5.00;;
9974;SDS011;5028;50.974;4.968;2023-04-02T10:18:12;7.10;;;4.77;;
9974;SDS011;5028;50.974;4.968;2023-04-02T10:20:46;5.77;;;4.50;;
9974;SDS011;5028;50.974;4.968;2023-04-02T10:23:26;7.17;;;5.47;;
9974;SDS011;5028;50.974;4.968;2023-04-02T10:25:59;6.37;;;4.27;;
9974;SDS011;5028;50.974;4.968;2023-04-02T10:28:52;5.87;;;4.07;;
9974;SDS011;5028;50.974;4.968;2023-04-02T10:31:39;6.90;;;4.40;;
9974;SDS011;5028;50.974;4.968;2023-04-02T10:34:20;5.70;;;4.13;;
9974;SDS011;5028;50.974;4.968;2023-04-02T10:37:00;4.87;;;4.03;;
9974;SDS011;5028;50.974;4.968;2023-04-02T10:39:38;5.27;;;4.10;;
9974;SDS011;5028;50.974;4.968;2023-04-02T10:42:18;6.43;;;3.77;;
9974;SDS011;5028;50.974;4.968;2023-04-02T10:44:55;4.33;;;3.80;;
9974;SDS011;5028;50.974;4.968;2023-04-02T10:47:38;4.83;;;3.87;;
9974;SDS011;5028;50.974;4.968;2023-04-02T10:50:23;5.73;;;3.90;;
9974;SDS011;5028;50.974;4.968;2023-04-02T10:53:07;4.30;;;3.20;;
9974;SDS011;5028;50.974;4.968;2023-04-02T10:55:39;5.53;;;3.10;;
9974;SDS011;5028;50.974;4.968;2023-04-02T10:58:21;3.73;;;2.67;;
9974;SDS011;5028;50.974;4.968;2023-04-02T11:00:54;3.13;;;2.50;;
9974;SDS011;5028;50.974;4.968;2023-04-02T11:03:40;2.90;;;2.57;;
9974;SDS011;5028;50.974;4.968;2023-04-02T11:06:13;3.00;;;2.13;;
9974;SDS011;5028;50.974;4.968;2023-04-02T11:08:54;3.37;;;2.40;;
9974;SDS011;5028;50.974;4.968;2023-04-02T11:11:25;4.03;;;2.70;;
9974;SDS011;5028;50.974;4.968;2023-04-02T11:14:07;4.40;;;2.57;;
9974;SDS011;5028;50.974;4.968;2023-04-02T11:16:41;5.70;;;2.87;;
9974;SDS011;5028;50.974;4.968;2023-04-02T11:19:21;3.30;;;2.37;;
9974;SDS011;5028;50.974;4.968;2023-04-02T11:21:52;4.03;;;2.60;;
9974;SDS011;5028;50.974;4.968;2023-04-02T11:24:36;3.43;;;2.70;;
9974;SDS011;5028;50.974;4.968;2023-04-02T11:27:16;3.50;;;2.80;;
9974;SDS011;5028;50.974;4.968;2023-04-02T11:29:50;4.17;;;2.90;;
9974;SDS011;5028;50.974;4.968;2023-04-02T11:32:48;4.17;;;3.20;;
9974;SDS011;5028;50.974;4.968;2023-04-02T11:44:38;8.73;;;3.43;;
9974;SDS011;5028;50.974;4.968;2023-04-02T11:47:14;4.03;;;3.23;;
9974;SDS011;5028;50.974;4.968;2023-04-02T11:50:19;4.23;;;3.30;;
9974;SDS011;5028;50.974;4.968;2023-04-02T11:53:01;4.20;;;2.70;;
9974;SDS011;5028;50.974;4.968;2023-04-02T11:55:37;3.83;;;2.50;;
9974;SDS011;5028;50.974;4.968;2023-04-02T11:58:23;4.97;;;3.10;;
9974;SDS011;5028;50.974;4.968;2023-04-02T12:04:36;4.07;;;2.50;;
9974;SDS011;5028;50.974;4.968;2023-04-02T12:07:39;4.87;;;2.50;;
9974;SDS011;5028;50.974;4.968;2023-04-02T12:10:26;5.37;;;2.40;;
9974;SDS011;5028;50.974;4.968;2023-04-02T12:12:59;3.07;;;2.47;;
9974;SDS011;5028;50.974;4.968;2023-04-02T12:15:41;4.53;;;2.63;;
9974;SDS011;5028;50.974;4.968;2023-04-02T12:18:12;3.63;;;2.90;;
9974;SDS011;5028;50.974;4.968;2023-04-02T12:20:49;4.50;;;3.00;;
9974;SDS011;5028;50.974;4.968;2023-04-02T12:23:23;4.50;;;2.50;;
9974;SDS011;5028;50.974;4.968;2023-04-02T12:26:03;4.70;;;2.60;;
9974;SDS011;5028;50.974;4.968;2023-04-02T12:28:34;3.17;;;2.60;;
9974;SDS011;5028;50.974;4.968;2023-04-02T12:31:11;3.57;;;2.27;;
9974;SDS011;5028;50.974;4.968;2023-04-02T12:33:50;3.33;;;2.47;;
9974;SDS011;5028;50.974;4.968;2023-04-02T12:36:20;2.93;;;2.30;;
9974;SDS011;5028;50.974;4.968;2023-04-02T12:38:58;4.40;;;3.10;;
9974;SDS011;5028;50.974;4.968;2023-04-02T12:41:35;4.13;;;2.73;;
9974;SDS011;5028;50.974;4.968;2023-04-02T12:44:04;3.77;;;2.00;;
9974;SDS011;5028;50.974;4.968;2023-04-02T12:46:43;3.70;;;2.50;;
9974;SDS011;5028;50.974;4.968;2023-04-02T12:49:20;4.07;;;2.10;;
9974;SDS011;5028;50.974;4.968;2023-04-02T12:52:02;3.00;;;2.47;;
9974;SDS011;5028;50.974;4.968;2023-04-02T12:54:35;3.23;;;2.37;;
9974;SDS011;5028;50.974;4.968;2023-04-02T12:57:21;4.13;;;2.63;;
9974;SDS011;5028;50.974;4.968;2023-04-02T13:03:14;3.67;;;2.30;;
9974;SDS011;5028;50.974;4.968;2023-04-02T13:06:00;4.27;;;3.07;;
9974;SDS011;5028;50.974;4.968;2023-04-02T13:08:40;3.37;;;2.80;;
9974;SDS011;5028;50.974;4.968;2023-04-02T13:11:17;5.10;;;2.67;;
9974;SDS011;5028;50.974;4.968;2023-04-02T13:13:58;3.67;;;2.60;;
9974;SDS011;5028;50.974;4.968;2023-04-02T13:16:32;3.47;;;2.20;;
9974;SDS011;5028;50.974;4.968;2023-04-02T13:19:28;2.77;;;2.17;;
9974;SDS011;5028;50.974;4.968;2023-04-02T13:22:26;3.63;;;2.33;;
9974;SDS011;5028;50.974;4.968;2023-04-02T13:24:57;4.20;;;2.50;;
9974;SDS011;5028;50.974;4.968;2023-04-02T13:27:34;5.27;;;2.50;;
9974;SDS011;5028;50.974;4.968;2023-04-02T13:30:06;4.50;;;2.40;;
9974;SDS011;5028;50.974;4.968;2023-04-02T13:32:42;2.90;;;1.97;;
9974;SDS011;5028;50.974;4.968;2023-04-02T13:35:11;3.70;;;2.30;;
9974;SDS011;5028;50.974;4.968;2023-04-02T13:37:46;3.23;;;2.13;;
9974;SDS011;5028;50.974;4.968;2023-04-02T13:40:16;5.17;;;2.80;;
9974;SDS011;5028;50.974;4.968;2023-04-02T13:42:47;4.00;;;2.30;;
9974;SDS011;5028;50.974;4.968;2023-04-02T13:45:23;3.03;;;2.37;;
9974;SDS011;5028;50.974;4.968;2023-04-02T13:47:54;3.20;;;2.53;;
9974;SDS011;5028;50.974;4.968;2023-04-02T13:50:33;3.07;;;2.00;;
9974;SDS011;5028;50.974;4.968;2023-04-02T13:53:03;3.47;;;2.20;;
9974;SDS011;5028;50.974;4.968;2023-04-02T13:55:40;4.57;;;2.63;;
9974;SDS011;5028;50.974;4.968;2023-04-02T13:58:11;4.00;;;2.70;;
9974;SDS011;5028;50.974;4.968;2023-04-02T14:00:45;3.47;;;2.23;;
9974;SDS011;5028;50.974;4.968;2023-04-02T14:03:27;4.10;;;2.47;;
9974;SDS011;5028;50.974;4.968;2023-04-02T14:06:10;2.37;;;2.07;;
9974;SDS011;5028;50.974;4.968;2023-04-02T14:08:52;2.50;;;2.00;;
9974;SDS011;5028;50.974;4.968;2023-04-02T14:11:35;7.00;;;2.23;;
9974;SDS011;5028;50.974;4.968;2023-04-02T14:14:17;2.20;;;2.00;;
9974;SDS011;5028;50.974;4.968;2023-04-02T14:17:06;3.53;;;2.17;;
9974;SDS011;5028;50.974;4.968;2023-04-02T14:19:47;4.90;;;2.10;;
9974;SDS011;5028;50.974;4.968;2023-04-02T14:22:47;2.73;;;1.87;;
9974;SDS011;5028;50.974;4.968;2023-04-02T14:25:29;3.23;;;2.10;;
9974;SDS011;5028;50.974;4.968;2023-04-02T14:28:12;3.77;;;2.27;;
9974;SDS011;5028;50.974;4.968;2023-04-02T14:30:52;3.30;;;2.40;;
9974;SDS011;5028;50.974;4.968;2023-04-02T14:33:34;3.03;;;2.10;;
9974;SDS011;5028;50.974;4.968;2023-04-02T14:36:11;2.67;;;2.00;;
9974;SDS011;5028;50.974;4.968;2023-04-02T14:38:53;3.03;;;2.23;;
9974;SDS011;5028;50.974;4.968;2023-04-02T14:41:27;3.23;;;2.20;;
9974;SDS011;5028;50.974;4.968;2023-04-02T14:44:09;3.87;;;2.20;;
9974;SDS011;5028;50.974;4.968;2023-04-02T14:46:41;4.07;;;2.40;;
9974;SDS011;5028;50.974;4.968;2023-04-02T14:49:20;4.23;;;1.90;;
9974;SDS011;5028;50.974;4.968;2023-04-02T14:51:52;2.80;;;2.10;;
9974;SDS011;5028;50.974;4.968;2023-04-02T14:54:33;3.30;;;1.83;;
9974;SDS011;5028;50.974;4.968;2023-04-02T14:57:09;3.77;;;2.20;;
9974;SDS011;5028;50.974;4.968;2023-04-02T14:59:56;5.93;;;2.30;;
9974;SDS011;5028;50.974;4.968;2023-04-02T15:02:44;3.33;;;1.90;;
9974;SDS011;5028;50.974;4.968;2023-04-02T15:05:25;2.40;;;2.00;;
9974;SDS011;5028;50.974;4.968;2023-04-02T15:08:06;3.07;;;2.10;;
9974;SDS011;5028;50.974;4.968;2023-04-02T15:10:52;2.13;;;1.83;;
9974;SDS011;5028;50.974;4.968;2023-04-02T15:13:30;3.20;;;2.13;;
9974;SDS011;5028;50.974;4.968;2023-04-02T15:16:10;2.47;;;2.27;;
9974;SDS011;5028;50.974;4.968;2023-04-02T15:18:45;2.83;;;2.40;;
9974;SDS011;5028;50.974;4.968;2023-04-02T15:21:35;3.10;;;2.57;;
9974;SDS011;5028;50.974;4.968;2023-04-02T15:24:27;3.43;;;2.43;;
9974;SDS011;5028;50.974;4.968;2023-04-02T15:27:10;3.70;;;2.40;;
9974;SDS011;5028;50.974;4.968;2023-04-02T15:29:52;3.73;;;2.30;;
9974;SDS011;5028;50.974;4.968;2023-04-02T15:32:35;3.27;;;2.03;;
9974;SDS011;5028;50.974;4.968;2023-04-02T15:35:08;2.37;;;1.93;;
9974;SDS011;5028;50.974;4.968;2023-04-02T15:37:57;2.30;;;1.53;;
9974;SDS011;5028;50.974;4.968;2023-04-02T15:40:30;3.87;;;1.50;;
9974;SDS011;5028;50.974;4.968;2023-04-02T15:43:23;2.70;;;1.73;;
9974;SDS011;5028;50.974;4.968;2023-04-02T15:45:58;3.63;;;1.50;;
9974;SDS011;5028;50.974;4.968;2023-04-02T15:51:39;1.93;;;1.63;;
9974;SDS011;5028;50.974;4.968;2023-04-02T15:54:27;3.27;;;2.17;;
9974;SDS011;5028;50.974;4.968;2023-04-02T15:57:08;2.93;;;1.90;;
9974;SDS011;5028;50.974;4.968;2023-04-02T16:03:08;2.53;;;1.70;;
9974;SDS011;5028;50.974;4.968;2023-04-02T16:06:27;3.00;;;1.97;;
9974;SDS011;5028;50.974;4.968;2023-04-02T16:09:08;2.00;;;1.80;;
9974;SDS011;5028;50.974;4.968;2023-04-02T16:11:49;3.70;;;2.77;;
9974;SDS011;5028;50.974;4.968;2023-04-02T16:14:30;1.87;;;1.67;;
9974;SDS011;5028;50.974;4.968;2023-04-02T16:17:01;3.37;;;1.90;;
9974;SDS011;5028;50.974;4.968;2023-04-02T16:19:51;3.10;;;2.00;;
9974;SDS011;5028;50.974;4.968;2023-04-02T16:22:23;2.40;;;2.10;;
9974;SDS011;5028;50.974;4.968;2023-04-02T16:25:05;2.20;;;1.50;;
9974;SDS011;5028;50.974;4.968;2023-04-02T16:27:49;2.20;;;1.90;;
9974;SDS011;5028;50.974;4.968;2023-04-02T16:30:36;1.70;;;1.50;;
9974;SDS011;5028;50.974;4.968;2023-04-02T16:36:16;2.27;;;1.53;;
9974;SDS011;5028;50.974;4.968;2023-04-02T16:39:00;2.60;;;1.50;;
9974;SDS011;5028;50.974;4.968;2023-04-02T16:41:41;1.67;;;1.50;;
9974;SDS011;5028;50.974;4.968;2023-04-02T16:44:27;1.40;;;1.30;;
9974;SDS011;5028;50.974;4.968;2023-04-02T16:47:05;1.60;;;1.50;;
9974;SDS011;5028;50.974;4.968;2023-04-02T16:49:52;2.97;;;1.53;;
9974;SDS011;5028;50.974;4.968;2023-04-02T16:52:30;2.37;;;1.40;;
9974;SDS011;5028;50.974;4.968;2023-04-02T16:55:18;1.73;;;1.40;;